createdAt,value
2019-05-20T00:03:03.133Z,3.37
2019-05-20T00:06:09.133Z,2.57
2019-05-20T00:09:15.022Z,2.93
2019-05-20T00:12:20.743Z,2.73
2019-05-20T00:15:26.412Z,2.50
2019-05-20T00:18:32.170Z,2.87
2019-05-20T00:21:37.940Z,3.53
2019-05-20T00:24:43.681Z,3.00
2019-05-20T00:27:49.527Z,3.20
2019-05-20T00:30:55.231Z,3.20
2019-05-20T00:34:00.914Z,3.80
2019-05-20T00:37:09.963Z,3.20
2019-05-20T00:40:15.866Z,3.50
2019-05-20T00:43:21.576Z,3.50
2019-05-20T00:46:27.259Z,3.57
2019-05-20T00:49:33.107Z,3.60
2019-05-20T00:52:38.926Z,3.20
2019-05-20T00:55:44.702Z,3.37
2019-05-20T00:58:50.414Z,3.37
2019-05-20T01:01:56.085Z,3.23
2019-05-20T01:05:01.775Z,3.40
2019-05-20T01:08:07.465Z,4.10
2019-05-20T01:11:13.187Z,3.87
2019-05-20T01:14:18.917Z,4.07
2019-05-20T01:17:24.663Z,3.57
2019-05-20T01:20:30.383Z,3.83
2019-05-20T01:23:36.037Z,3.47
2019-05-20T01:26:41.743Z,3.30
2019-05-20T01:29:47.494Z,3.50
2019-05-20T01:32:53.169Z,3.40
2019-05-20T01:35:58.908Z,3.57
2019-05-20T01:39:05.416Z,3.80
2019-05-20T01:42:11.196Z,3.60
2019-05-20T01:45:18.055Z,3.70
2019-05-20T01:48:23.744Z,3.37
2019-05-20T01:51:29.410Z,3.30
2019-05-20T01:54:35.070Z,3.87
2019-05-20T01:57:40.791Z,3.27
2019-05-20T02:00:46.541Z,3.20
2019-05-20T02:03:52.274Z,3.33
2019-05-20T02:07:01.344Z,3.33
2019-05-20T02:10:07.589Z,3.20
2019-05-20T02:13:13.329Z,3.13
2019-05-20T02:16:19.683Z,3.13
2019-05-20T02:19:25.354Z,3.00
2019-05-20T02:22:31.077Z,3.23
2019-05-20T02:25:36.897Z,3.77
2019-05-20T02:28:44.438Z,4.13
2019-05-20T02:31:50.204Z,3.77
2019-05-20T02:34:57.443Z,3.00
2019-05-20T02:38:03.454Z,3.80
2019-05-20T02:41:09.349Z,3.60
2019-05-20T02:44:17.589Z,3.90
2019-05-20T02:47:30.894Z,3.60
2019-05-20T02:50:39.322Z,3.47
2019-05-20T02:53:50.530Z,4.47
2019-05-20T02:56:57.486Z,3.60
2019-05-20T03:00:03.325Z,3.57
2019-05-20T03:03:10.747Z,3.93
2019-05-20T03:06:16.931Z,4.03
2019-05-20T03:09:22.607Z,3.90
2019-05-20T03:12:28.420Z,4.03
2019-05-20T03:15:34.116Z,4.40
2019-05-20T03:18:39.824Z,4.03
2019-05-20T03:21:45.479Z,4.10
2019-05-20T03:24:51.220Z,4.17
2019-05-20T03:27:56.906Z,4.60
2019-05-20T03:31:02.646Z,4.40
2019-05-20T03:34:08.487Z,4.17
2019-05-20T03:37:14.136Z,4.50
2019-05-20T03:40:19.841Z,4.23
2019-05-20T03:43:25.563Z,4.00
2019-05-20T03:46:31.334Z,4.03
2019-05-20T03:49:37.009Z,4.33
2019-05-20T03:52:42.741Z,4.20
2019-05-20T03:55:48.418Z,4.43
2019-05-20T03:58:54.111Z,4.63
2019-05-20T04:01:59.876Z,4.53
2019-05-20T04:05:05.883Z,4.27
2019-05-20T04:08:11.829Z,4.53
2019-05-20T04:11:17.535Z,4.40
2019-05-20T04:14:23.306Z,4.43
2019-05-20T04:17:28.969Z,4.40
2019-05-20T04:20:34.904Z,4.80
2019-05-20T04:23:41.003Z,4.47
2019-05-20T04:26:47.139Z,5.33
2019-05-20T04:29:52.820Z,5.07
2019-05-20T04:32:58.604Z,5.20
2019-05-20T04:36:04.372Z,5.17
2019-05-20T04:39:10.043Z,5.80
2019-05-20T04:42:15.726Z,6.77
2019-05-20T04:45:21.544Z,6.73
2019-05-20T04:48:27.204Z,7.17
2019-05-20T04:51:32.919Z,7.40
2019-05-20T04:54:38.626Z,8.50
2019-05-20T04:57:44.294Z,7.83
2019-05-20T05:00:57.532Z,7.40
2019-05-20T05:04:03.195Z,7.57
2019-05-20T05:07:08.981Z,6.97
2019-05-20T05:10:15.192Z,7.33
2019-05-20T05:13:21.751Z,6.80
2019-05-20T05:16:27.596Z,6.63
2019-05-20T05:19:33.549Z,7.30
2019-05-20T05:22:39.316Z,6.90
2019-05-20T05:25:45.273Z,7.43
2019-05-20T05:28:51.949Z,7.00
2019-05-20T05:31:57.779Z,6.50
2019-05-20T05:35:03.455Z,6.70
2019-05-20T05:38:09.349Z,6.97
2019-05-20T05:41:15.101Z,6.83
2019-05-20T05:44:20.787Z,6.33
2019-05-20T05:47:26.484Z,6.60
2019-05-20T05:50:36.749Z,6.70
2019-05-20T05:53:42.149Z,6.90
2019-05-20T05:56:47.889Z,6.87
2019-05-20T05:59:53.707Z,6.53
2019-05-20T06:02:59.365Z,7.20
2019-05-20T06:06:12.275Z,7.50
2019-05-20T06:09:12.653Z,7.70
2019-05-20T06:12:18.335Z,6.57
2019-05-20T06:15:24.875Z,6.17
2019-05-20T06:18:30.538Z,5.50
2019-05-20T06:21:36.272Z,5.40
2019-05-20T06:24:41.931Z,5.57
2019-05-20T06:27:47.658Z,5.87
2019-05-20T06:30:53.321Z,5.43
2019-05-20T06:33:59.246Z,5.33
2019-05-20T06:37:07.524Z,5.27
2019-05-20T06:40:13.617Z,5.27
2019-05-20T06:43:19.380Z,5.00
2019-05-20T06:46:27.963Z,5.40
2019-05-20T06:49:33.632Z,3.90
2019-05-20T06:52:39.335Z,5.20
2019-05-20T06:55:45.081Z,4.27
2019-05-20T06:58:50.813Z,5.07
2019-05-20T07:01:56.821Z,3.90
2019-05-20T07:05:03.671Z,4.23
2019-05-20T07:08:09.339Z,4.13
2019-05-20T07:11:15.073Z,4.60
2019-05-20T07:14:20.901Z,4.43
2019-05-20T07:17:29.548Z,3.70
2019-05-20T07:20:50.187Z,4.23
2019-05-20T07:23:57.243Z,4.10
2019-05-20T07:27:02.977Z,4.00
2019-05-20T07:30:09.121Z,4.30
2019-05-20T07:33:14.863Z,5.13
2019-05-20T07:36:25.945Z,4.53
2019-05-20T07:39:31.680Z,3.87
2019-05-20T07:42:37.413Z,4.63
2019-05-20T07:45:43.902Z,3.73
2019-05-20T07:48:50.492Z,4.37
2019-05-20T07:51:57.196Z,3.90
2019-05-20T07:55:03.868Z,4.17
2019-05-20T07:58:11.018Z,3.60
2019-05-20T08:01:17.236Z,4.07
2019-05-20T08:04:23.455Z,3.80
2019-05-20T08:07:49.875Z,4.23
2019-05-20T08:10:36.971Z,4.10
2019-05-20T08:13:42.844Z,4.20
2019-05-20T08:16:48.530Z,4.00
2019-05-20T08:19:54.219Z,3.80
2019-05-20T08:22:59.954Z,3.70
2019-05-20T08:26:05.709Z,3.67
2019-05-20T08:29:11.403Z,3.77
2019-05-20T08:32:17.058Z,3.53
2019-05-20T08:35:25.241Z,4.00
2019-05-20T08:38:30.921Z,4.07
2019-05-20T08:41:36.830Z,4.70
2019-05-20T08:44:42.690Z,4.40
2019-05-20T08:47:50.187Z,3.70
2019-05-20T08:50:55.987Z,3.67
2019-05-20T08:54:03.360Z,3.57
2019-05-20T08:57:09.092Z,3.00
2019-05-20T09:00:23.207Z,2.90
2019-05-20T09:03:30.485Z,3.50
2019-05-20T09:06:36.469Z,3.20
2019-05-20T09:09:42.287Z,3.60
2019-05-20T09:12:48.077Z,3.40
2019-05-20T09:15:54.835Z,3.70
2019-05-20T09:19:00.512Z,3.67
2019-05-20T09:22:06.236Z,3.20
2019-05-20T09:25:14.189Z,3.67
2019-05-20T09:28:20.443Z,3.30
2019-05-20T09:31:26.534Z,3.47
2019-05-20T09:34:32.569Z,3.30
2019-05-20T09:37:39.503Z,3.33
2019-05-20T09:40:47.791Z,3.67
2019-05-20T09:43:53.532Z,3.20
2019-05-20T09:46:59.246Z,3.40
2019-05-20T09:50:05.972Z,3.17
2019-05-20T09:53:11.829Z,3.53
2019-05-20T09:56:17.627Z,3.87
2019-05-20T09:59:23.465Z,4.00
2019-05-20T10:02:34.507Z,4.13
2019-05-20T10:05:37.632Z,3.60
2019-05-20T10:08:45.289Z,3.70
2019-05-20T10:11:51.643Z,3.73
2019-05-20T10:14:57.385Z,4.17
2019-05-20T10:18:03.277Z,3.70
2019-05-20T10:21:09.071Z,3.27
2019-05-20T10:24:14.768Z,3.37
2019-05-20T10:27:20.621Z,3.50
2019-05-20T10:30:26.494Z,3.30
2019-05-20T10:33:32.216Z,4.13
2019-05-20T10:36:37.880Z,2.50
2019-05-20T10:39:43.656Z,3.20
2019-05-20T10:42:49.470Z,3.60
2019-05-20T10:45:55.234Z,3.00
2019-05-20T10:49:02.135Z,2.87
2019-05-20T10:52:07.900Z,2.60
2019-05-20T10:55:13.716Z,3.00
2019-05-20T10:58:19.527Z,2.80
2019-05-20T11:01:25.266Z,2.87
2019-05-20T11:04:30.959Z,2.95
2019-05-20T11:07:36.867Z,2.67
2019-05-20T11:10:42.740Z,3.10
2019-05-20T11:13:48.461Z,2.90
2019-05-20T11:16:54.168Z,3.37
2019-05-20T11:19:59.866Z,2.75
2019-05-20T11:23:05.621Z,2.63
2019-05-20T11:26:11.412Z,2.73
2019-05-20T11:29:17.121Z,3.00
2019-05-20T11:32:22.860Z,2.87
2019-05-20T11:35:28.663Z,2.63
2019-05-20T11:38:34.587Z,2.37
2019-05-20T11:41:52.613Z,2.63
2019-05-20T11:44:47.876Z,2.70
2019-05-20T11:47:53.605Z,2.63
2019-05-20T11:50:59.284Z,2.70
2019-05-20T11:54:04.995Z,2.70
2019-05-20T11:57:10.672Z,2.70
2019-05-20T12:00:17.089Z,2.80
2019-05-20T12:03:22.775Z,3.00
2019-05-20T12:06:28.489Z,2.90
2019-05-20T12:09:48.300Z,2.80
2019-05-20T12:12:41.515Z,3.35
2019-05-20T12:15:47.217Z,2.90
2019-05-20T12:18:52.934Z,3.02
2019-05-20T12:21:58.665Z,2.52
2019-05-20T12:25:04.647Z,2.92
2019-05-20T12:28:10.695Z,2.35
2019-05-20T12:31:16.478Z,3.08
2019-05-20T12:34:22.309Z,2.87
2019-05-20T12:37:27.975Z,2.62
2019-05-20T12:40:33.879Z,2.17
2019-05-20T12:43:39.527Z,2.42
2019-05-20T12:46:45.246Z,2.80
2019-05-20T12:49:51.087Z,2.62
2019-05-20T12:52:56.781Z,3.37
2019-05-20T12:56:02.536Z,2.70
2019-05-20T12:59:08.273Z,2.72
2019-05-20T13:02:17.405Z,3.00
2019-05-20T13:05:23.297Z,3.15
2019-05-20T13:08:29.543Z,2.90
2019-05-20T13:11:38.962Z,2.35
2019-05-20T13:14:44.678Z,2.30
2019-05-20T13:17:50.999Z,2.90
2019-05-20T13:20:56.776Z,2.58
2019-05-20T13:24:02.448Z,2.60
2019-05-20T13:27:08.267Z,2.92
2019-05-20T13:30:14.691Z,2.83
2019-05-20T13:33:20.355Z,2.65
2019-05-20T13:36:26.058Z,2.97
2019-05-20T13:39:31.760Z,2.20
2019-05-20T13:42:37.613Z,2.47
2019-05-20T13:45:43.383Z,2.50
2019-05-20T13:48:50.421Z,2.87
2019-05-20T13:51:56.102Z,2.42
2019-05-20T13:55:01.816Z,2.62
2019-05-20T13:58:07.595Z,2.30
2019-05-20T14:01:13.335Z,2.00
2019-05-20T14:04:18.979Z,2.45
2019-05-20T14:07:24.781Z,2.17
2019-05-20T14:10:30.482Z,2.20
2019-05-20T14:13:36.163Z,2.77
2019-05-20T14:16:41.860Z,2.80
2019-05-20T14:19:47.632Z,2.98
2019-05-20T14:22:56.388Z,2.53
2019-05-20T14:26:02.219Z,3.52
2019-05-20T14:29:08.007Z,2.77
2019-05-20T14:32:13.696Z,3.20
2019-05-20T14:35:19.576Z,3.20
2019-05-20T14:38:25.419Z,3.83
2019-05-20T14:41:31.167Z,4.87
2019-05-20T14:44:36.840Z,3.33
2019-05-20T14:47:43.219Z,3.20
2019-05-20T14:50:51.009Z,3.17
2019-05-20T14:53:58.499Z,3.90
2019-05-20T14:57:05.980Z,3.13
2019-05-20T15:00:14.430Z,3.23
2019-05-20T15:03:21.577Z,3.70
2019-05-20T15:06:29.247Z,3.13
2019-05-20T15:09:36.049Z,2.73
2019-05-20T15:12:42.652Z,3.27
2019-05-20T15:15:48.817Z,2.83
2019-05-20T15:18:56.082Z,2.33
2019-05-20T15:22:04.118Z,2.33
2019-05-20T15:25:11.791Z,2.10
2019-05-20T15:28:18.096Z,2.13
2019-05-20T15:31:24.444Z,2.33
2019-05-20T15:34:32.189Z,2.00
2019-05-20T15:37:40.344Z,1.83
2019-05-20T15:40:46.877Z,1.87
2019-05-20T15:43:53.868Z,2.20
2019-05-20T15:47:00.791Z,2.00
2019-05-20T15:50:10.012Z,2.67
2019-05-20T15:53:42.178Z,2.20
2019-05-20T15:56:49.622Z,2.70
2019-05-20T15:59:55.447Z,2.47
2019-05-20T16:03:01.305Z,2.90
2019-05-20T16:06:07.147Z,2.40
2019-05-20T16:09:16.868Z,2.97
2019-05-20T16:12:20.384Z,2.90
2019-05-20T16:15:26.040Z,2.83
2019-05-20T16:18:31.701Z,2.90
2019-05-20T16:21:37.505Z,2.73
2019-05-20T16:24:45.328Z,2.80
2019-05-20T16:27:50.714Z,2.70
2019-05-20T16:30:56.373Z,2.67
2019-05-20T16:34:02.148Z,2.60
2019-05-20T16:37:07.915Z,2.67
2019-05-20T16:40:14.214Z,2.50
2019-05-20T16:43:20.034Z,3.00
2019-05-20T16:46:25.705Z,2.40
2019-05-20T16:49:31.426Z,2.43
2019-05-20T16:52:37.151Z,2.20
2019-05-20T16:55:42.885Z,2.77
2019-05-20T16:58:48.546Z,2.47
2019-05-20T17:01:54.247Z,2.37
2019-05-20T17:05:00.180Z,3.57
2019-05-20T17:08:06.283Z,3.47
2019-05-20T17:11:12.034Z,4.33
2019-05-20T17:14:21.383Z,3.40
2019-05-20T17:17:27.069Z,3.93
2019-05-20T17:20:32.760Z,3.27
2019-05-20T17:23:38.423Z,6.30
2019-05-20T17:26:44.182Z,3.13
2019-05-20T17:29:50.237Z,2.40
2019-05-20T17:32:55.919Z,2.93
2019-05-20T17:36:01.706Z,3.03
2019-05-20T17:39:08.528Z,2.87
2019-05-20T17:42:14.291Z,3.10
2019-05-20T17:45:20.208Z,4.10
2019-05-20T17:48:26.091Z,2.80
2019-05-20T17:51:33.318Z,2.67
2019-05-20T17:54:39.088Z,2.83
2019-05-20T17:57:44.782Z,3.03
2019-05-20T18:00:50.645Z,2.30
2019-05-20T18:03:56.380Z,2.20
2019-05-20T18:07:02.149Z,2.37
2019-05-20T18:10:08.968Z,2.10
2019-05-20T18:13:14.750Z,2.57
2019-05-20T18:16:20.516Z,3.53
2019-05-20T18:19:26.180Z,4.40
2019-05-20T18:22:31.952Z,3.87
2019-05-20T18:25:37.659Z,2.97
2019-05-20T18:28:43.325Z,3.07
2019-05-20T18:31:49.108Z,2.70
2019-05-20T18:34:54.868Z,2.27
2019-05-20T18:38:00.707Z,2.63
2019-05-20T18:41:06.497Z,2.40
2019-05-20T18:44:13.383Z,2.30
2019-05-20T18:47:19.171Z,2.40
2019-05-20T18:50:24.882Z,2.40
2019-05-20T18:53:30.670Z,2.17
2019-05-20T18:56:36.440Z,2.30
2019-05-20T18:59:42.242Z,2.53
2019-05-20T19:02:47.892Z,3.17
2019-05-20T19:05:53.564Z,2.30
2019-05-20T19:08:59.232Z,2.30
2019-05-20T19:12:05.074Z,2.63
2019-05-20T19:15:12.139Z,2.57
2019-05-20T19:18:17.900Z,2.67
2019-05-20T19:21:22.306Z,1.90
2019-05-20T19:24:27.858Z,2.10
2019-05-20T19:27:33.567Z,2.03
2019-05-20T19:30:39.233Z,2.47
2019-05-20T19:33:44.967Z,2.23
2019-05-20T19:36:50.654Z,2.30
2019-05-20T19:40:05.956Z,2.37
2019-05-20T19:43:13.242Z,2.70
2019-05-20T19:46:18.962Z,2.80
2019-05-20T19:49:26.245Z,2.53
2019-05-20T19:52:32.131Z,2.90
2019-05-20T19:55:37.751Z,2.77
2019-05-20T19:58:46.461Z,2.30
2019-05-20T20:01:56.109Z,2.93
2019-05-20T20:05:11.908Z,3.13
2019-05-20T20:08:09.743Z,3.30
2019-05-20T20:11:15.512Z,3.40
2019-05-20T20:14:21.221Z,3.80
2019-05-20T20:17:27.019Z,3.40
2019-05-20T20:20:32.833Z,3.50
2019-05-20T20:23:38.634Z,3.40
2019-05-20T20:26:44.436Z,3.60
2019-05-20T20:29:50.138Z,3.33
2019-05-20T20:32:55.828Z,3.80
2019-05-20T20:36:01.475Z,3.67
2019-05-20T20:39:09.582Z,3.70
2019-05-20T20:42:15.285Z,3.50
2019-05-20T20:45:21.107Z,3.20
2019-05-20T20:48:26.772Z,3.57
2019-05-20T20:51:32.460Z,3.33
2019-05-20T20:54:38.244Z,2.87
2019-05-20T20:57:43.893Z,3.13
2019-05-20T21:00:49.783Z,3.37
2019-05-20T21:03:55.460Z,4.33
2019-05-20T21:07:01.198Z,4.30
2019-05-20T21:10:07.812Z,4.27
2019-05-20T21:13:15.126Z,5.30
2019-05-20T21:16:21.038Z,5.37
2019-05-20T21:19:26.836Z,5.93
2019-05-20T21:22:32.542Z,5.17
2019-05-20T21:25:38.471Z,5.93
2019-05-20T21:28:44.419Z,6.00
2019-05-20T21:31:50.095Z,5.67
2019-05-20T21:34:55.811Z,6.07
2019-05-20T21:38:01.524Z,6.63
2019-05-20T21:41:07.229Z,6.90
2019-05-20T21:44:17.272Z,7.70
2019-05-20T21:47:28.243Z,7.73
2019-05-20T21:50:33.918Z,8.40
2019-05-20T21:53:39.626Z,7.97
2019-05-20T21:56:45.376Z,8.17
2019-05-20T21:59:51.108Z,7.10
2019-05-20T22:02:57.406Z,6.87
2019-05-20T22:06:03.339Z,8.10
2019-05-20T22:09:09.183Z,6.40
2019-05-20T22:12:15.018Z,6.37
2019-05-20T22:15:20.938Z,6.30
2019-05-20T22:18:27.271Z,6.13
2019-05-20T22:21:45.108Z,6.90
2019-05-20T22:24:50.887Z,6.53
2019-05-20T22:27:56.605Z,6.40
2019-05-20T22:31:06.803Z,6.37
2019-05-20T22:34:13.764Z,6.40
2019-05-20T22:37:19.461Z,5.53
2019-05-20T22:40:25.142Z,6.60
2019-05-20T22:43:30.889Z,6.40
2019-05-20T22:46:36.611Z,5.93
2019-05-20T22:49:42.287Z,5.87
2019-05-20T22:52:50.472Z,6.80
2019-05-20T22:55:56.158Z,6.47
2019-05-20T22:59:01.854Z,6.30
2019-05-20T23:02:07.576Z,6.87
2019-05-20T23:05:13.644Z,6.40
2019-05-20T23:08:19.331Z,6.20
2019-05-20T23:11:25.009Z,6.40
2019-05-20T23:14:33.019Z,6.27
2019-05-20T23:17:38.688Z,6.00
2019-05-20T23:20:44.386Z,5.63
2019-05-20T23:23:50.057Z,5.30
2019-05-20T23:26:55.725Z,5.27
2019-05-20T23:30:01.385Z,5.60
2019-05-20T23:33:09.136Z,5.77
2019-05-20T23:36:15.030Z,5.63
2019-05-20T23:39:20.703Z,6.10
2019-05-20T23:42:26.391Z,5.07
2019-05-20T23:45:32.113Z,4.00
2019-05-20T23:48:37.876Z,4.10
2019-05-20T23:51:43.720Z,4.30
2019-05-20T23:54:52.188Z,4.70
2019-05-20T23:57:57.851Z,4.30
